createdAt,value
2019-05-05T00:01:14.719Z,1.70
2019-05-05T00:06:18.615Z,1.80
2019-05-05T00:11:35.011Z,1.93
2019-05-05T00:16:45.819Z,2.42
2019-05-05T00:21:49.661Z,2.30
2019-05-05T00:26:55.195Z,2.60
2019-05-05T00:31:58.671Z,2.37
2019-05-05T00:37:04.622Z,2.62
2019-05-05T00:42:08.392Z,2.10
2019-05-05T00:47:19.872Z,1.82
2019-05-05T00:52:24.539Z,1.98
2019-05-05T00:57:28.194Z,2.45
2019-05-05T01:02:34.345Z,1.87
2019-05-05T01:07:38.421Z,2.43
2019-05-05T01:12:42.020Z,2.55
2019-05-05T01:17:45.639Z,3.70
2019-05-05T01:22:49.651Z,2.27
2019-05-05T01:27:54.581Z,2.58
2019-05-05T01:33:18.205Z,2.27
2019-05-05T01:38:26.430Z,2.37
2019-05-05T01:43:30.215Z,2.27
2019-05-05T01:48:35.111Z,2.42
2019-05-05T01:53:38.829Z,2.87
2019-05-05T01:58:44.168Z,2.37
2019-05-05T02:03:47.813Z,2.30
2019-05-05T02:08:51.377Z,2.45
2019-05-05T02:13:54.973Z,2.00
2019-05-05T02:18:58.510Z,2.30
2019-05-05T02:24:02.081Z,2.52
2019-05-05T02:29:07.253Z,2.25
2019-05-05T02:34:11.710Z,1.85
2019-05-05T02:39:16.175Z,2.62
2019-05-05T02:44:19.866Z,2.47
2019-05-05T02:49:25.574Z,2.30
2019-05-05T02:54:28.714Z,2.25
2019-05-05T02:59:35.263Z,1.90
2019-05-05T03:04:39.036Z,2.35
2019-05-05T03:09:43.989Z,2.40
2019-05-05T03:14:47.623Z,2.15
2019-05-05T03:19:53.407Z,2.67
2019-05-05T03:24:56.481Z,2.65
2019-05-05T03:30:00.043Z,2.55
2019-05-05T03:35:04.252Z,2.47
2019-05-05T03:40:09.517Z,2.70
2019-05-05T03:45:20.424Z,2.42
2019-05-05T03:50:23.969Z,2.90
2019-05-05T03:55:27.561Z,2.60
2019-05-05T04:00:52.219Z,2.87
2019-05-05T04:05:57.480Z,3.15
2019-05-05T04:11:01.099Z,2.95
2019-05-05T04:16:18.846Z,2.70
2019-05-05T04:21:32.842Z,2.50
2019-05-05T04:26:27.831Z,2.77
2019-05-05T04:31:31.450Z,2.50
2019-05-05T04:36:35.068Z,2.10
2019-05-05T04:41:38.608Z,2.37
2019-05-05T04:46:44.164Z,2.45
2019-05-05T04:51:50.523Z,2.85
2019-05-05T04:56:54.172Z,2.45
2019-05-05T05:01:59.285Z,2.62
2019-05-05T05:07:04.767Z,2.30
2019-05-05T05:12:08.395Z,2.30
2019-05-05T05:17:14.170Z,2.80
2019-05-05T05:22:17.783Z,2.75
2019-05-05T05:27:21.370Z,2.60
2019-05-05T05:32:25.151Z,2.47
2019-05-05T05:37:28.742Z,3.45
2019-05-05T05:42:33.572Z,2.83
2019-05-05T05:47:55.334Z,2.40
2019-05-05T05:52:58.954Z,2.50
2019-05-05T05:58:04.616Z,4.97
2019-05-05T06:03:07.823Z,3.27
2019-05-05T06:08:11.484Z,4.50
2019-05-05T06:13:15.702Z,3.02
2019-05-05T06:18:19.483Z,3.22
2019-05-05T06:23:23.989Z,3.02
2019-05-05T06:28:27.818Z,4.67
2019-05-05T06:33:31.368Z,3.85
2019-05-05T06:38:35.261Z,4.62
2019-05-05T06:43:56.559Z,4.95
2019-05-05T06:49:00.168Z,3.70
2019-05-05T06:54:04.649Z,5.08
2019-05-05T06:59:08.520Z,3.80
2019-05-05T07:04:13.844Z,5.67
2019-05-05T07:09:17.378Z,5.60
2019-05-05T07:14:20.922Z,3.70
2019-05-05T07:19:24.584Z,4.28
2019-05-05T07:24:28.129Z,7.30
2019-05-05T07:29:31.714Z,12.30
2019-05-05T07:34:54.605Z,4.72
2019-05-05T07:39:58.300Z,16.55
2019-05-05T07:45:04.074Z,9.40
2019-05-05T07:50:11.650Z,8.90
2019-05-05T07:55:14.380Z,7.17
2019-05-05T08:00:18.079Z,7.90
2019-05-05T08:05:21.631Z,6.63
2019-05-05T08:10:25.222Z,6.72
2019-05-05T08:15:30.026Z,8.60
2019-05-05T08:20:35.326Z,7.03
2019-05-05T08:25:46.607Z,8.38
2019-05-05T08:31:00.686Z,8.27
2019-05-05T08:36:04.808Z,6.17
2019-05-05T08:41:08.356Z,6.15
2019-05-05T08:46:14.180Z,6.20
2019-05-05T08:51:17.234Z,5.97
2019-05-05T08:56:20.800Z,7.03
2019-05-05T09:01:24.407Z,6.72
2019-05-05T09:06:27.967Z,5.83
2019-05-05T09:11:31.531Z,6.42
2019-05-05T09:16:35.137Z,7.97
2019-05-05T09:21:39.443Z,6.00
2019-05-05T09:26:44.699Z,5.47
2019-05-05T09:31:48.319Z,6.25
2019-05-05T09:36:51.938Z,5.60
2019-05-05T09:41:55.568Z,5.37
2019-05-05T09:46:59.285Z,5.62
2019-05-05T09:52:05.023Z,4.67
2019-05-05T09:57:08.361Z,4.15
2019-05-05T10:02:11.979Z,5.47
2019-05-05T10:07:15.537Z,8.28
2019-05-05T10:12:19.134Z,8.28
2019-05-05T10:17:24.418Z,12.25
2019-05-05T10:22:28.137Z,9.53
2019-05-05T10:27:44.022Z,8.33
2019-05-05T10:32:37.019Z,10.63
2019-05-05T10:37:40.592Z,7.00
2019-05-05T10:42:50.417Z,8.40
2019-05-05T10:47:54.389Z,5.37
2019-05-05T10:52:57.964Z,6.08
2019-05-05T10:58:01.865Z,6.87
2019-05-05T11:03:05.604Z,7.83
2019-05-05T11:08:09.208Z,8.12
2019-05-05T11:13:13.115Z,6.53
2019-05-05T11:18:16.868Z,5.35
2019-05-05T11:23:20.438Z,8.88
2019-05-05T11:28:24.004Z,6.53
2019-05-05T11:33:47.338Z,7.28
2019-05-05T11:38:50.933Z,6.92
2019-05-05T11:43:54.518Z,6.35
2019-05-05T11:48:58.114Z,9.50
2019-05-05T11:54:01.666Z,6.33
2019-05-05T11:59:05.240Z,7.10
2019-05-05T12:04:10.378Z,7.40
2019-05-05T12:09:15.548Z,7.40
2019-05-05T12:14:20.679Z,6.35
2019-05-05T12:19:24.480Z,4.90
2019-05-05T12:24:29.756Z,6.42
2019-05-05T12:29:34.858Z,5.05
2019-05-05T12:34:38.464Z,5.28
2019-05-05T12:39:44.117Z,6.33
2019-05-05T12:44:48.945Z,5.80
2019-05-05T12:49:54.419Z,8.35
2019-05-05T12:54:57.804Z,5.92
2019-05-05T13:00:01.441Z,7.03
2019-05-05T13:05:07.044Z,7.68
2019-05-05T13:10:10.655Z,12.27
2019-05-05T13:15:14.430Z,7.80
2019-05-05T13:20:34.995Z,7.42
2019-05-05T13:25:55.841Z,10.50
2019-05-05T13:30:53.962Z,6.00
2019-05-05T13:35:57.123Z,6.22
2019-05-05T13:41:00.719Z,5.40
2019-05-05T13:46:24.845Z,5.83
2019-05-05T13:51:28.708Z,5.60
2019-05-05T13:56:33.587Z,6.22
2019-05-05T14:01:37.285Z,5.85
2019-05-05T14:06:40.857Z,6.22
2019-05-05T14:11:44.637Z,6.70
2019-05-05T14:16:48.181Z,6.85
2019-05-05T14:21:53.700Z,7.15
2019-05-05T14:26:57.048Z,6.17
2019-05-05T14:32:00.649Z,6.28
2019-05-05T14:37:24.725Z,5.20
2019-05-05T14:42:28.228Z,5.15
2019-05-05T14:47:33.509Z,5.50
2019-05-05T14:52:37.419Z,6.58
2019-05-05T14:57:40.978Z,7.17
2019-05-05T15:02:44.674Z,6.60
2019-05-05T15:08:06.209Z,4.83
2019-05-05T15:13:10.560Z,8.13
2019-05-05T15:18:14.689Z,5.58
2019-05-05T15:23:18.333Z,6.25
2019-05-05T15:28:21.911Z,5.58
2019-05-05T15:33:25.515Z,5.58
2019-05-05T15:38:29.067Z,5.70
2019-05-05T15:43:33.512Z,4.62
2019-05-05T15:48:37.208Z,6.10
2019-05-05T15:53:40.797Z,5.67
2019-05-05T15:58:44.408Z,4.17
2019-05-05T16:03:47.963Z,3.95
2019-05-05T16:08:55.870Z,4.62
2019-05-05T16:13:57.001Z,4.40
2019-05-05T16:19:06.295Z,3.83
2019-05-05T16:24:18.436Z,5.28
2019-05-05T16:29:23.710Z,4.15
2019-05-05T16:34:27.355Z,4.92
2019-05-05T16:39:30.916Z,5.30
2019-05-05T16:44:34.477Z,5.15
2019-05-05T16:49:38.070Z,5.47
2019-05-05T16:54:43.182Z,5.50
2019-05-05T16:59:46.798Z,4.95
2019-05-05T17:04:50.361Z,5.45
2019-05-05T17:09:53.932Z,7.05
2019-05-05T17:15:04.881Z,6.50
2019-05-05T17:20:25.371Z,7.22
2019-05-05T17:25:28.926Z,5.80
2019-05-05T17:30:34.146Z,6.10
2019-05-05T17:35:37.940Z,5.20
2019-05-05T17:40:46.281Z,6.67
2019-05-05T17:46:06.757Z,11.07
2019-05-05T17:51:13.756Z,11.93
2019-05-05T17:56:17.228Z,6.20
2019-05-05T18:01:20.786Z,8.47
2019-05-05T18:06:25.936Z,6.97
2019-05-05T18:11:35.173Z,8.88
2019-05-05T18:16:38.934Z,8.57
2019-05-05T18:21:43.883Z,8.58
2019-05-05T18:26:47.629Z,11.08
2019-05-05T18:31:53.399Z,8.33
2019-05-05T18:36:56.509Z,7.40
2019-05-05T18:42:07.645Z,8.85
2019-05-05T18:47:20.992Z,9.38
2019-05-05T18:52:24.718Z,6.95
2019-05-05T18:57:28.313Z,8.28
2019-05-05T19:02:36.407Z,7.20
2019-05-05T19:07:54.844Z,7.00
2019-05-05T19:12:50.939Z,6.35
2019-05-05T19:17:54.713Z,5.47
2019-05-05T19:23:05.255Z,5.97
2019-05-05T19:28:07.869Z,9.70
2019-05-05T19:33:13.428Z,6.55
2019-05-05T19:38:16.740Z,6.93
2019-05-05T19:43:20.304Z,6.12
2019-05-05T19:48:24.457Z,15.40
2019-05-05T19:53:28.142Z,12.27
2019-05-05T19:58:31.751Z,9.37
2019-05-05T20:03:35.631Z,10.25
2019-05-05T20:08:41.372Z,8.83
2019-05-05T20:13:44.751Z,7.25
2019-05-05T20:18:50.261Z,7.95
2019-05-05T20:23:53.651Z,6.50
2019-05-05T20:29:10.681Z,7.10
2019-05-05T20:34:04.095Z,7.15
2019-05-05T20:39:07.645Z,6.40
2019-05-05T20:44:11.241Z,8.18
2019-05-05T20:49:14.789Z,4.53
2019-05-05T20:54:18.359Z,7.53
2019-05-05T20:59:29.999Z,4.92
2019-05-05T21:04:27.263Z,5.83
2019-05-05T21:09:30.842Z,4.80
2019-05-05T21:14:37.823Z,5.87
2019-05-05T21:19:39.712Z,4.97
2019-05-05T21:24:44.502Z,4.80
2019-05-05T21:29:48.050Z,6.42
2019-05-05T21:34:51.622Z,5.25
2019-05-05T21:39:55.440Z,4.87
2019-05-05T21:44:59.119Z,4.35
2019-05-05T21:50:03.799Z,4.78
2019-05-05T21:55:09.012Z,4.47
2019-05-05T22:00:14.207Z,4.17
2019-05-05T22:05:19.405Z,6.53
2019-05-05T22:10:24.456Z,5.00
2019-05-05T22:15:28.246Z,3.55
2019-05-05T22:20:33.926Z,3.20
2019-05-05T22:25:38.766Z,5.22
2019-05-05T22:30:43.708Z,3.45
2019-05-05T22:35:47.909Z,3.92
2019-05-05T22:40:51.468Z,3.25
2019-05-05T22:45:56.149Z,4.78
2019-05-05T22:50:59.920Z,4.03
2019-05-05T22:56:04.045Z,3.75
2019-05-05T23:01:07.933Z,3.62
2019-05-05T23:06:13.781Z,4.67
2019-05-05T23:11:17.499Z,3.72
2019-05-05T23:16:33.891Z,4.70
2019-05-05T23:21:56.005Z,3.05
2019-05-05T23:26:59.562Z,3.85
2019-05-05T23:32:03.272Z,2.67
2019-05-05T23:37:06.831Z,3.65
2019-05-05T23:42:10.442Z,4.90
2019-05-05T23:47:14.062Z,3.40
2019-05-05T23:52:17.671Z,4.03
2019-05-05T23:57:21.270Z,4.03
